Ride Results

Wattlewood Ride (12-09-2020)
Ride distance: 80.0 km

Outcomes - Wattlewood Ride (12-09-2020)
Division No. of Entries Retired / DNE Completed Withdrawn Ineligible V/O Percentage Completed
HW 5 - 3 - - 2 60.00%
MW 14 - 10 - - 4 71.43%
LW 9 - 8 - - 1 88.89%
JN 8 - 7 - - 1 87.50%
Totals 36 - 28 - - 8 77.78%
Results - Wattlewood Ride (12-09-2020)
No. Rider Horse Place Time Leg Speeds Total
Km/Hr
H/R bpm
Heavyweight
171 Craig Wall Undurra Angelise 1 (BC) 6:14:05 13.2, 12.4 12.83 62, 53, 53 (Avg:53)
242 Allie Bloom Indigo 2 7:35:50 10.8, 10.1 10.53 40, 41, 53 (Avg:47)
82 Mark Dunn Calypso 3 7:35:58 10.5, 10.4 10.53 37, 47, 53 (Avg:50)
333 Rebecca Ainslie Tomky Wilde Zeus Lame L2 0:00:00 12.1, 10.5 - 34, 42, 41 (Avg:41)
137 John Shoobridge Kalody Park Piper Lame L2 0:00:00 13.2, 15.0 - 42, 40, 56 (Avg:48)
Middleweight
300 Raelene Smith Acaciavej Silk'n Velvet 1 (BC) 4:50:55 16.0, 16.9 16.50 44, 42, 40 (Avg:41)
99 Heather Johnson Black Heart Dashar 2 5:56:51 13.4, 13.5 13.45 36, 47, 52 (Avg:49)
136 Kaye Mitchell Beer Street Aslan T B 3 6:05:50 13.1, 13.1 13.12 44, 50, 43 (Avg:46)
139 Cacia Rand Shayelle Chocolate 4 6:07:06 13.1, 13.0 13.08 36, 48, 43 (Avg:45)
142 Shayne Williams Shayelle Boh Magic 5 6:07:08 13.1, 13.0 13.07 70, 53, 50 (Avg:51)
330 Sarah Spencer Sierra Lodge Elysium Gold 6 6:14:11 13.2, 12.3 12.83 48, 48, 60 (Avg:54)
57 Tania Jago Undurra Max 7 6:32:45 11.3, 13.2 12.22 48, 52, 51 (Avg:51)
263 Ali Smith Vern 8 7:08:15 11.1, 11.2 11.21 36, 55, 52 (Avg:53)
162 Linda Pilgrim Lauralyn Fascination 9 7:08:30 11.1, 11.2 11.20 36, 40, 46 (Avg:43)
68 Janine Parr Janarr Shimmering Surprise 10 7:27:25 10.9, 10.4 10.73 33, 45, 36 (Avg:40)
339 Lara Verdouw Awarran Park Shining Aura Heart Rate L2 0:00:00 11.8, 12.4 - 40, 47, 70 (Avg:58)
254 Deb Wyllie Beer Street Bewitched Lame L2 0:00:00 14.7, 15.7 - 34, 46, 43 (Avg:44)
332 Jillinda Aitchison Ravel Lame L1 0:00:00 11.9 - 37, 46 (Avg:46)
185 Mikaela Jago Kiss Of Fame Heart Rate L1 0:00:00 11.3 - 30, 62 (Avg:62)
Lightweight
253 Kelly Woodhouse Yondover Ridge Bee 1 (BC) 4:49:55 16.0, 17.1 16.56 36, 44, 55 (Avg:49)
54 Brooke McKenna Miss Mika 2 5:15:27 14.7, 15.6 15.22 39, 46, 51 (Avg:48)
L Angie Clark Littlebanks Troubadour 3 6:04:05 11.8, 14.9 13.18 42, 40, 41 (Avg:40)
100 Trish Smith Beaucheval Akhiran 4 6:34:53 12.8, 11.5 12.16 32, 48, 59 (Avg:53)
90 Angela Hawks Karabah Tully 5 6:37:11 11.2, 13.1 12.09 31, 43, 47 (Avg:45)
163 Lydia Rigby Z'lights Giselle 6 6:52:28 12.7, 10.7 11.64 32, 40, 32 (Avg:36)
180 Nicole Ford Zintahn Klassique 7 6:52:59 11.0, 12.2 11.62 36, 44, 59 (Avg:51)
247 Jaz Hutchins Zarahemla Lord Falcon 8 7:08:10 11.1, 11.2 11.21 45, 49, 54 (Avg:51)
106 Laura Enright Woodsong Sodium Heart Rate L2 0:00:00 11.1, 10.1 - 41, 48, 62 (Avg:55)
Junior
331 Bella-Grace Bass Anderton Park Jonah Hex 1 (BC) 6:29:01 11.2, 13.7 12.34 32, 47, 45 (Avg:46)
48 Asha Lamprey Spring Lodge Andi 2 6:37:15 11.2, 13.1 12.08 42, 47, 50 (Avg:48)
105 Shanna Samec Hollydale Charlotte 3 6:51:34 11.1, 12.2 11.66 43, 46, 52 (Avg:49)
307 Laura McGregor Gypsy 4 6:51:36 11.8, 11.4 11.66 38, 44, 44 (Avg:44)
286 Piper Stevenson Apache 5 7:16:10 11.2, 10.8 11.00 40, 54, 56 (Avg:55)
334 Halla Parr Al Qadir Revelation 6 7:28:03 10.9, 10.4 10.71 38, 48, 55 (Avg:51)
237 Kiana Ford Amira Amani 7 7:34:29 11.0, 10.0 10.56 42, 43, 60 (Avg:51)
294 Matilda Rockliff Riverdale Park Casino Royale Heart Rate L1 0:00:00 10.8 - 38, 60 (Avg:60)